Time;durP1;ratioP1;P1;durP2;ratioP2;P2;SDS_P1;SDS_P2;PMS_P1;PMS_P2;Temp;Humidity;BMP_temperature;BMP_pressure;BME280_temperature;BME280_humidity;BME280_pressure;Samples;Min_cycle;Max_cycle;Signal;HPM_P1;HPM_P2
2023/07/28 00:01:50;;;;;;;;;;;18.60;91.20;;;;;;5113447;28;19923;-37
2023/07/28 00:04:15;;;;;;;;;;;18.60;91.30;;;;;;5113689;28;19910;-38
2023/07/28 00:06:41;;;;;;;;;;;18.60;91.30;;;;;;5113529;28;19907;-36
2023/07/28 00:09:06;;;;;;;;;;;18.60;91.30;;;;;;5113463;28;19923;-43
2023/07/28 00:11:32;;;;;;;;;;;18.60;91.30;;;;;;5113360;28;19908;-38
2023/07/28 00:13:57;;;;;;;;;;;18.60;91.30;;;;;;5113224;28;20417;-38
2023/07/28 00:16:23;;;;;;;;;;;18.60;91.20;;;;;;5113289;28;19908;-39
2023/07/28 00:18:48;;;;;;;;;;;18.70;91.20;;;;;;5113104;28;20575;-39
2023/07/28 00:21:13;;;;;;;;;;;18.70;91.20;;;;;;5113187;28;19908;-37
2023/07/28 00:23:39;;;;;;;;;;;18.70;91.20;;;;;;5113382;28;19908;-38
2023/07/28 00:26:04;;;;;;;;;;;18.70;91.20;;;;;;5113182;28;19908;-38
2023/07/28 00:28:30;;;;;;;;;;;18.70;91.20;;;;;;5113006;28;20274;-37
2023/07/28 00:30:55;;;;;;;;;;;18.70;91.20;;;;;;5112876;28;19907;-38
2023/07/28 00:33:21;;;;;;;;;;;18.70;91.20;;;;;;5112951;28;19919;-38
2023/07/28 00:35:46;;;;;;;;;;;18.70;91.20;;;;;;5113275;28;20306;-37
2023/07/28 00:38:12;;;;;;;;;;;18.70;91.20;;;;;;5112897;28;19998;-37
2023/07/28 00:40:37;;;;;;;;;;;18.70;91.30;;;;;;5093521;28;19912;-38
2023/07/28 00:43:03;;;;;;;;;;;18.60;91.30;;;;;;5112840;28;19916;-38
2023/07/28 00:45:29;;;;;;;;;;;18.60;91.30;;;;;;5112860;28;20386;-40
2023/07/28 00:47:57;;;;;;;;;;;18.60;91.30;;;;;;5112817;28;20472;-40
2023/07/28 00:50:23;;;;;;;;;;;18.70;91.30;;;;;;5112566;28;19916;-37
2023/07/28 00:52:49;;;;;;;;;;;18.60;91.40;;;;;;5112705;28;19908;-40
2023/07/28 00:55:15;;;;;;;;;;;18.60;91.40;;;;;;5112671;28;20309;-34
2023/07/28 00:57:40;;;;;;;;;;;18.60;91.40;;;;;;5112573;28;20371;-37
2023/07/28 01:00:06;;;;;;;;;;;18.60;91.30;;;;;;5112600;28;19914;-38
2023/07/28 01:02:31;;;;;;;;;;;18.60;91.30;;;;;;5119700;22;20302;-33
2023/07/28 01:04:57;;;;;;;;;;;18.60;91.30;;;;;;5119151;22;20346;-36
2023/07/28 01:07:30;;;;;;;;;;;18.60;91.40;;;;;;5112753;28;19914;-37
2023/07/28 01:10:01;;;;;;;;;;;18.60;91.30;;;;;;5112551;28;19907;-36
2023/07/28 01:12:27;;;;;;;;;;;18.70;91.30;;;;;;5112558;28;19907;-38
2023/07/28 01:14:52;;;;;;;;;;;18.60;91.30;;;;;;5112735;28;20002;-37
2023/07/28 01:17:19;;;;;;;;;;;18.70;91.40;;;;;;5112505;28;20354;-36
2023/07/28 01:19:45;;;;;;;;;;;18.60;91.30;;;;;;5112525;28;19911;-38
2023/07/28 01:22:10;;;;;;;;;;;18.70;91.30;;;;;;5112504;28;19908;-38
2023/07/28 01:25:08;;;;;;;;;;;18.70;91.30;;;;;;5112429;28;19908;-35
2023/07/28 01:27:34;;;;;;;;;;;18.70;91.30;;;;;;5112538;28;19916;-41
2023/07/28 01:30:00;;;;;;;;;;;18.70;91.30;;;;;;5112375;28;20011;-38
2023/07/28 01:32:25;;;;;;;;;;;18.70;91.30;;;;;;5112358;28;19940;-37
2023/07/28 01:34:51;;;;;;;;;;;18.70;91.20;;;;;;5112301;28;20263;-38
2023/07/28 01:37:16;;;;;;;;;;;18.70;91.30;;;;;;5112365;28;19914;-37
2023/07/28 01:39:42;;;;;;;;;;;18.70;91.30;;;;;;5112252;28;20178;-38
2023/07/28 01:42:07;;;;;;;;;;;18.70;91.30;;;;;;5093934;28;19908;-37
2023/07/28 01:44:33;;;;;;;;;;;18.70;91.30;;;;;;5112210;28;20332;-36
2023/07/28 01:46:58;;;;;;;;;;;18.70;91.30;;;;;;5112007;28;19935;-37
2023/07/28 01:49:24;;;;;;;;;;;18.70;91.30;;;;;;5112195;28;19957;-42
2023/07/28 01:51:49;;;;;;;;;;;18.70;91.40;;;;;;5112906;28;19908;-38
2023/07/28 01:54:14;;;;;;;;;;;18.70;91.30;;;;;;5115990;28;19908;-39
2023/07/28 01:56:40;;;;;;;;;;;18.70;91.40;;;;;;5115809;28;19907;-36
2023/07/28 01:59:05;;;;;;;;;;;18.70;91.40;;;;;;5115705;28;19907;-37
2023/07/28 02:01:31;;;;;;;;;;;18.60;91.40;;;;;;5116271;28;19998;-39
2023/07/28 02:03:56;;;;;;;;;;;18.60;91.40;;;;;;5115564;28;20038;-37
2023/07/28 02:06:22;;;;;;;;;;;18.60;91.50;;;;;;5115899;28;19941;-39
2023/07/28 02:08:47;;;;;;;;;;;18.70;91.50;;;;;;5115845;28;20355;-37
2023/07/28 02:11:13;;;;;;;;;;;18.60;91.50;;;;;;5116278;28;19931;-37
2023/07/28 02:13:39;;;;;;;;;;;18.60;91.50;;;;;;5115644;28;19908;-37
2023/07/28 02:16:04;;;;;;;;;;;18.60;91.50;;;;;;5115784;28;20010;-37
2023/07/28 02:18:30;;;;;;;;;;;18.60;91.50;;;;;;5115591;28;19954;-38
2023/07/28 02:20:55;;;;;;;;;;;18.60;91.50;;;;;;5115440;28;19911;-36
2023/07/28 02:23:20;;;;;;;;;;;18.70;91.60;;;;;;5115563;28;19908;-37
2023/07/28 02:25:46;;;;;;;;;;;18.60;91.50;;;;;;5115491;28;19914;-37
2023/07/28 02:28:12;;;;;;;;;;;18.60;91.50;;;;;;5115339;28;19912;-40
2023/07/28 02:30:37;;;;;;;;;;;18.70;91.50;;;;;;5115487;28;19916;-37
2023/07/28 02:33:03;;;;;;;;;;;18.70;91.50;;;;;;5115467;28;20286;-38
2023/07/28 02:35:28;;;;;;;;;;;18.70;91.50;;;;;;5115329;28;19914;-35
2023/07/28 02:37:54;;;;;;;;;;;18.70;91.50;;;;;;5115339;28;19915;-37
2023/07/28 02:40:19;;;;;;;;;;;18.70;91.50;;;;;;5115133;28;19908;-37
2023/07/28 02:42:45;;;;;;;;;;;18.70;91.50;;;;;;5115219;28;19908;-37
2023/07/28 02:45:10;;;;;;;;;;;18.70;91.60;;;;;;5115385;28;19908;-36
2023/07/28 02:47:36;;;;;;;;;;;18.70;91.60;;;;;;5115130;28;19923;-36
2023/07/28 02:50:01;;;;;;;;;;;18.70;91.50;;;;;;5096745;28;19908;-37
2023/07/28 02:52:27;;;;;;;;;;;18.70;91.50;;;;;;5115019;28;19960;-36
2023/07/28 02:54:52;;;;;;;;;;;18.70;91.50;;;;;;5114948;28;19915;-38
2023/07/28 02:57:18;;;;;;;;;;;18.70;91.50;;;;;;5114806;28;19941;-38
2023/07/28 02:59:43;;;;;;;;;;;18.70;91.50;;;;;;5114711;28;20031;-38
2023/07/28 03:02:09;;;;;;;;;;;18.70;91.50;;;;;;5096531;28;19907;-36
2023/07/28 03:04:34;;;;;;;;;;;18.70;91.50;;;;;;5113591;28;19923;-37
2023/07/28 03:07:00;;;;;;;;;;;18.80;91.50;;;;;;5114724;28;19908;-36
2023/07/28 03:09:25;;;;;;;;;;;18.70;91.50;;;;;;5114561;28;20434;-38
2023/07/28 03:11:51;;;;;;;;;;;18.70;91.50;;;;;;5114849;28;19908;-38
2023/07/28 03:14:17;;;;;;;;;;;18.80;91.50;;;;;;5114490;28;19915;-37
2023/07/28 03:16:42;;;;;;;;;;;18.70;91.60;;;;;;5114775;28;20346;-38
2023/07/28 03:19:08;;;;;;;;;;;18.70;91.50;;;;;;5114483;28;19908;-38
2023/07/28 03:21:33;;;;;;;;;;;18.70;91.50;;;;;;5114510;28;20379;-37
2023/07/28 03:23:58;;;;;;;;;;;18.80;91.50;;;;;;5114201;28;19914;-38
2023/07/28 03:26:24;;;;;;;;;;;18.80;91.50;;;;;;5114393;28;20599;-37
2023/07/28 03:28:50;;;;;;;;;;;18.80;91.50;;;;;;5114420;28;19919;-35
2023/07/28 03:31:15;;;;;;;;;;;18.80;91.40;;;;;;5114232;28;19950;-36
2023/07/28 03:33:41;;;;;;;;;;;18.80;91.50;;;;;;5114343;28;19908;-37
2023/07/28 03:36:06;;;;;;;;;;;18.80;91.40;;;;;;5114340;28;19915;-36
2023/07/28 03:38:31;;;;;;;;;;;18.80;91.50;;;;;;5113997;28;20373;-36
2023/07/28 03:40:57;;;;;;;;;;;18.80;91.50;;;;;;5114051;28;20274;-37
2023/07/28 03:43:22;;;;;;;;;;;18.80;91.50;;;;;;5113962;28;19907;-37
2023/07/28 03:45:48;;;;;;;;;;;18.80;91.50;;;;;;5113845;28;19908;-43
2023/07/28 03:48:13;;;;;;;;;;;18.80;91.50;;;;;;5114076;28;19920;-39
2023/07/28 03:50:39;;;;;;;;;;;18.80;91.50;;;;;;5113795;28;19908;-37
2023/07/28 03:53:04;;;;;;;;;;;18.70;91.50;;;;;;5113877;28;20617;-37
2023/07/28 03:55:30;;;;;;;;;;;18.80;91.50;;;;;;5113795;28;19908;-38
2023/07/28 03:57:55;;;;;;;;;;;18.80;91.50;;;;;;5113576;28;19911;-36
2023/07/28 04:00:21;;;;;;;;;;;18.80;91.50;;;;;;5113636;28;20224;-37
2023/07/28 04:02:46;;;;;;;;;;;18.80;91.50;;;;;;5113506;28;19999;-36
2023/07/28 04:05:12;;;;;;;;;;;18.80;91.50;;;;;;5094910;28;19916;-36
2023/07/28 04:07:37;;;;;;;;;;;18.80;91.60;;;;;;5113366;28;19911;-35
2023/07/28 04:10:04;;;;;;;;;;;18.80;91.50;;;;;;5095239;28;19965;-38
2023/07/28 04:12:29;;;;;;;;;;;18.70;91.50;;;;;;5095134;28;19915;-37
2023/07/28 04:14:54;;;;;;;;;;;18.70;91.50;;;;;;5113258;28;19911;-36
2023/07/28 04:17:20;;;;;;;;;;;18.70;91.60;;;;;;5113343;28;19939;-37
2023/07/28 04:19:45;;;;;;;;;;;18.70;91.60;;;;;;5113407;28;19961;-37
2023/07/28 04:22:11;;;;;;;;;;;18.70;91.60;;;;;;5113379;28;19915;-38
2023/07/28 04:24:36;;;;;;;;;;;18.70;91.70;;;;;;5113358;28;19911;-39
2023/07/28 04:27:02;;;;;;;;;;;18.70;91.70;;;;;;5113418;28;19908;-39
2023/07/28 04:29:27;;;;;;;;;;;18.70;91.70;;;;;;5113205;28;19915;-38
2023/07/28 04:31:54;;;;;;;;;;;18.70;91.80;;;;;;5113344;28;19989;-37
2023/07/28 04:34:19;;;;;;;;;;;18.70;91.80;;;;;;5113113;28;19982;-38
2023/07/28 04:36:45;;;;;;;;;;;18.70;91.80;;;;;;5113210;28;19908;-44
2023/07/28 04:39:10;;;;;;;;;;;18.70;91.80;;;;;;5113159;28;20337;-37
2023/07/28 04:41:36;;;;;;;;;;;18.70;91.70;;;;;;5113105;28;19973;-39
2023/07/28 04:44:01;;;;;;;;;;;18.70;91.80;;;;;;5113242;28;19931;-38
2023/07/28 04:46:27;;;;;;;;;;;18.70;91.70;;;;;;5113074;28;20382;-37
2023/07/28 04:48:53;;;;;;;;;;;18.80;91.70;;;;;;5112900;28;20410;-39
2023/07/28 04:51:19;;;;;;;;;;;18.70;91.70;;;;;;5113084;28;20010;-37
2023/07/28 04:53:44;;;;;;;;;;;18.80;91.70;;;;;;5113001;28;19962;-38
2023/07/28 04:56:10;;;;;;;;;;;18.80;91.70;;;;;;5112939;28;19908;-36
2023/07/28 04:58:35;;;;;;;;;;;18.80;91.80;;;;;;5112877;28;19908;-38
2023/07/28 05:01:01;;;;;;;;;;;18.80;91.80;;;;;;5112860;28;19908;-37
2023/07/28 05:03:26;;;;;;;;;;;18.80;91.80;;;;;;5112667;28;20064;-38
2023/07/28 05:05:52;;;;;;;;;;;18.80;91.70;;;;;;5112842;28;19907;-48
2023/07/28 05:08:17;;;;;;;;;;;18.80;91.80;;;;;;5112643;28;19920;-36
2023/07/28 05:10:43;;;;;;;;;;;18.80;91.70;;;;;;5112677;28;20330;-39
2023/07/28 05:13:09;;;;;;;;;;;18.80;91.70;;;;;;5112711;28;19921;-51
2023/07/28 05:15:34;;;;;;;;;;;18.80;91.70;;;;;;5112656;28;20391;-40
2023/07/28 05:18:00;;;;;;;;;;;18.80;91.80;;;;;;5112550;28;20139;-37
2023/07/28 05:20:25;;;;;;;;;;;18.80;91.80;;;;;;5112770;28;19995;-36
2023/07/28 05:22:51;;;;;;;;;;;18.80;92.10;;;;;;5112579;28;19912;-38
2023/07/28 05:25:16;;;;;;;;;;;18.80;92.00;;;;;;5112659;28;19951;-38
2023/07/28 05:27:42;;;;;;;;;;;18.80;92.00;;;;;;5115016;28;19919;-36
2023/07/28 05:30:08;;;;;;;;;;;18.80;92.00;;;;;;5116724;28;20023;-38
2023/07/28 05:32:33;;;;;;;;;;;18.80;92.00;;;;;;5116779;28;19908;-39
2023/07/28 05:34:58;;;;;;;;;;;18.80;92.10;;;;;;5098271;28;19955;-37
2023/07/28 05:37:24;;;;;;;;;;;18.80;92.10;;;;;;5116628;28;20282;-37
2023/07/28 05:39:49;;;;;;;;;;;18.80;92.10;;;;;;5116558;28;19908;-37
2023/07/28 05:42:15;;;;;;;;;;;18.70;92.10;;;;;;5098083;28;19919;-38
2023/07/28 05:44:40;;;;;;;;;;;18.70;92.10;;;;;;5116365;28;19908;-47
2023/07/28 05:47:06;;;;;;;;;;;18.70;92.10;;;;;;5116552;28;20004;-37
2023/07/28 05:49:31;;;;;;;;;;;18.70;92.10;;;;;;5116314;28;20286;-37
2023/07/28 05:51:57;;;;;;;;;;;18.80;92.10;;;;;;5116348;28;19907;-37
2023/07/28 05:54:23;;;;;;;;;;;18.80;92.10;;;;;;5097731;28;19908;-37
2023/07/28 05:56:48;;;;;;;;;;;18.80;92.10;;;;;;5116131;28;19961;-36
2023/07/28 05:59:13;;;;;;;;;;;18.80;92.00;;;;;;5116453;28;19911;-39
2023/07/28 06:01:39;;;;;;;;;;;18.90;92.10;;;;;;5115885;28;19908;-37
2023/07/28 06:04:05;;;;;;;;;;;18.80;92.00;;;;;;5115772;28;20240;-38
2023/07/28 06:06:30;;;;;;;;;;;18.90;92.00;;;;;;5115926;28;19915;-35
2023/07/28 06:08:55;;;;;;;;;;;18.90;91.90;;;;;;5115714;28;19970;-37
2023/07/28 06:11:21;;;;;;;;;;;18.90;91.90;;;;;;5097452;28;19925;-35
2023/07/28 06:13:47;;;;;;;;;;;19.00;92.20;;;;;;5115798;28;19908;-39
2023/07/28 06:16:15;;;;;;;;;;;19.00;91.90;;;;;;5116039;28;20298;-38
2023/07/28 06:18:41;;;;;;;;;;;19.00;91.80;;;;;;5115973;28;19907;-38
2023/07/28 06:21:07;;;;;;;;;;;19.00;91.80;;;;;;5115708;28;20421;-37
2023/07/28 06:23:32;;;;;;;;;;;19.10;91.80;;;;;;5115665;28;19907;-38
2023/07/28 06:25:57;;;;;;;;;;;19.10;91.70;;;;;;5115511;28;19908;-41
2023/07/28 06:28:23;;;;;;;;;;;19.10;91.70;;;;;;5115485;28;19915;-37
2023/07/28 06:30:55;;;;;;;;;;;19.20;91.70;;;;;;5115505;28;20364;-37
2023/07/28 06:33:21;;;;;;;;;;;19.20;91.70;;;;;;5115514;28;19907;-44
2023/07/28 06:35:46;;;;;;;;;;;19.20;91.70;;;;;;5115754;28;20343;-38
2023/07/28 06:38:12;;;;;;;;;;;19.20;91.70;;;;;;5115162;28;19914;-38
2023/07/28 06:40:37;;;;;;;;;;;19.20;91.60;;;;;;5115429;28;19912;-35
2023/07/28 06:43:03;;;;;;;;;;;19.20;91.60;;;;;;5096670;28;19908;-38
2023/07/28 06:45:29;;;;;;;;;;;19.20;91.60;;;;;;5115256;28;19954;-36
2023/07/28 06:47:54;;;;;;;;;;;19.20;91.60;;;;;;5115205;28;20006;-38
2023/07/28 06:50:20;;;;;;;;;;;19.20;91.60;;;;;;5115173;28;19947;-37
2023/07/28 06:52:46;;;;;;;;;;;19.20;91.60;;;;;;5115497;28;19915;-38
2023/07/28 06:55:12;;;;;;;;;;;19.20;91.60;;;;;;5114991;28;19908;-38
2023/07/28 06:57:37;;;;;;;;;;;19.20;91.60;;;;;;5114820;28;19961;-35
2023/07/28 07:00:03;;;;;;;;;;;19.20;91.60;;;;;;5115155;28;20275;-37
2023/07/28 07:02:29;;;;;;;;;;;19.20;91.60;;;;;;5115007;28;19908;-37
2023/07/28 07:04:54;;;;;;;;;;;19.20;91.60;;;;;;5114646;28;19939;-44
2023/07/28 07:07:20;;;;;;;;;;;19.20;91.60;;;;;;5114793;28;19981;-41
2023/07/28 07:09:45;;;;;;;;;;;19.20;91.60;;;;;;5114759;28;19916;-39
2023/07/28 07:12:11;;;;;;;;;;;19.30;91.70;;;;;;5114868;28;19998;-40
2023/07/28 07:14:36;;;;;;;;;;;19.30;91.60;;;;;;5114516;28;20325;-38
2023/07/28 07:17:02;;;;;;;;;;;19.30;91.60;;;;;;5114683;28;19931;-43
2023/07/28 07:19:27;;;;;;;;;;;19.20;91.60;;;;;;5096401;28;20381;-40
2023/07/28 07:21:53;;;;;;;;;;;19.30;91.50;;;;;;5114630;28;19953;-36
2023/07/28 07:24:18;;;;;;;;;;;19.40;91.50;;;;;;5114554;28;19908;-36
2023/07/28 07:26:44;;;;;;;;;;;19.40;91.50;;;;;;5114449;28;19912;-37
2023/07/28 07:29:10;;;;;;;;;;;19.50;91.40;;;;;;5114368;28;20010;-37
2023/07/28 07:31:35;;;;;;;;;;;19.50;91.30;;;;;;5114755;28;19912;-36
2023/07/28 07:34:01;;;;;;;;;;;19.60;91.30;;;;;;5096184;28;19957;-37
2023/07/28 07:36:26;;;;;;;;;;;19.60;91.30;;;;;;5114255;28;19908;-39
2023/07/28 07:38:52;;;;;;;;;;;19.60;91.30;;;;;;5114171;28;19907;-37
2023/07/28 07:41:20;;;;;;;;;;;19.70;91.20;;;;;;5114171;28;19915;-39
2023/07/28 07:43:46;;;;;;;;;;;19.70;91.20;;;;;;5114367;28;20418;-39
2023/07/28 07:46:12;;;;;;;;;;;19.70;91.20;;;;;;5114165;28;20374;-37
2023/07/28 07:48:37;;;;;;;;;;;19.70;91.20;;;;;;5113973;28;19946;-40
2023/07/28 07:51:03;;;;;;;;;;;19.70;91.20;;;;;;5113659;28;20109;-42
2023/07/28 07:53:29;;;;;;;;;;;19.80;91.20;;;;;;5114269;28;19908;-40
2023/07/28 07:55:54;;;;;;;;;;;19.80;91.20;;;;;;5113833;28;19937;-40
2023/07/28 07:58:20;;;;;;;;;;;19.80;91.20;;;;;;5113922;28;20355;-38
2023/07/28 08:00:45;;;;;;;;;;;19.80;91.20;;;;;;5113957;28;19912;-48
2023/07/28 08:03:11;;;;;;;;;;;19.80;91.10;;;;;;5113857;28;19912;-41
2023/07/28 08:05:37;;;;;;;;;;;19.80;91.10;;;;;;5113741;28;20436;-37
2023/07/28 08:08:02;;;;;;;;;;;19.90;91.10;;;;;;5113835;28;19963;-37
2023/07/28 08:10:28;;;;;;;;;;;20.00;91.10;;;;;;5113644;28;20398;-35
2023/07/28 08:12:54;;;;;;;;;;;20.10;91.00;;;;;;5113948;28;19980;-38
2023/07/28 08:15:20;;;;;;;;;;;20.10;91.00;;;;;;5113499;28;19915;-39
2023/07/28 08:17:45;;;;;;;;;;;20.10;90.90;;;;;;5113404;28;19907;-38
2023/07/28 08:20:11;;;;;;;;;;;20.10;90.90;;;;;;5113297;28;19908;-38
2023/07/28 08:22:37;;;;;;;;;;;20.20;90.90;;;;;;5113840;28;19949;-37
2023/07/28 08:25:04;;;;;;;;;;;20.20;90.90;;;;;;5113409;28;19914;-40
2023/07/28 08:27:29;;;;;;;;;;;20.20;90.80;;;;;;5113313;28;19915;-41
2023/07/28 08:29:55;;;;;;;;;;;20.30;90.80;;;;;;5113453;28;19911;-40
2023/07/28 08:32:21;;;;;;;;;;;20.30;90.70;;;;;;5113323;28;19908;-41
2023/07/28 08:34:47;;;;;;;;;;;20.30;90.70;;;;;;5113465;28;19908;-37
2023/07/28 08:37:13;;;;;;;;;;;20.30;90.70;;;;;;5113078;28;20002;-38
2023/07/28 08:39:38;;;;;;;;;;;20.30;90.80;;;;;;5113025;28;19908;-39
2023/07/28 08:42:04;;;;;;;;;;;20.20;91.00;;;;;;5112991;28;19911;-46
2023/07/28 08:44:33;;;;;;;;;;;20.20;90.70;;;;;;5112874;28;19908;-38
2023/07/28 08:47:04;;;;;;;;;;;20.20;90.80;;;;;;5112990;28;20404;-37
2023/07/28 08:49:32;;;;;;;;;;;20.20;90.70;;;;;;5112916;28;19911;-36
2023/07/28 08:51:59;;;;;;;;;;;20.20;90.70;;;;;;5113114;28;20422;-38
2023/07/28 08:54:24;;;;;;;;;;;20.20;90.70;;;;;;5112957;28;19911;-39
2023/07/28 08:56:50;;;;;;;;;;;20.20;90.60;;;;;;5112816;28;20267;-37
2023/07/28 08:59:25;;;;;;;;;;;20.30;90.60;;;;;;5112997;28;19956;-40
2023/07/28 09:01:51;;;;;;;;;;;20.40;90.50;;;;;;5111954;28;19962;-45
2023/07/28 09:04:17;;;;;;;;;;;20.50;90.50;;;;;;5112462;28;20427;-34
2023/07/28 09:06:49;;;;;;;;;;;20.60;90.40;;;;;;5112035;28;19908;-35
2023/07/28 09:09:15;;;;;;;;;;;20.60;90.30;;;;;;5093131;28;20424;-39
2023/07/28 09:11:44;;;;;;;;;;;20.60;90.20;;;;;;5111640;28;19908;-42
2023/07/28 09:14:11;;;;;;;;;;;20.60;90.30;;;;;;5112437;28;19908;-37
2023/07/28 09:16:37;;;;;;;;;;;20.60;90.30;;;;;;5113056;28;20375;-44
2023/07/28 09:19:06;;;;;;;;;;;20.60;90.20;;;;;;5112547;28;19907;-38
2023/07/28 09:21:32;;;;;;;;;;;20.60;90.20;;;;;;5094427;28;20014;-37
2023/07/28 09:24:03;;;;;;;;;;;20.60;90.10;;;;;;5112567;28;19951;-37
2023/07/28 09:26:38;;;;;;;;;;;20.60;90.10;;;;;;5112639;28;20406;-37
2023/07/28 09:29:12;;;;;;;;;;;20.60;90.10;;;;;;5112415;28;19912;-37
2023/07/28 09:31:38;;;;;;;;;;;20.60;90.10;;;;;;5112488;28;19931;-37
2023/07/28 09:34:06;;;;;;;;;;;20.60;90.10;;;;;;5112553;28;19912;-37
2023/07/28 09:36:33;;;;;;;;;;;20.60;90.10;;;;;;5112437;28;19981;-38
2023/07/28 09:38:58;;;;;;;;;;;20.80;90.10;;;;;;5112380;28;19908;-43
2023/07/28 09:41:25;;;;;;;;;;;20.90;90.00;;;;;;5112419;28;20324;-38
2023/07/28 09:43:50;;;;;;;;;;;21.10;89.80;;;;;;5112433;28;19915;-38
2023/07/28 09:46:17;;;;;;;;;;;21.30;90.00;;;;;;5112423;28;19908;-38
2023/07/28 09:48:45;;;;;;;;;;;21.50;89.20;;;;;;5112082;28;19912;-40
2023/07/28 09:51:30;;;;;;;;;;;21.70;89.00;;;;;;5094032;28;19908;-44
2023/07/28 09:53:58;;;;;;;;;;;21.80;88.70;;;;;;5112234;28;19908;-37
2023/07/28 09:56:29;;;;;;;;;;;21.90;88.50;;;;;;5112566;28;20358;-37
2023/07/28 09:58:55;;;;;;;;;;;22.00;88.20;;;;;;5112306;28;19957;-41
2023/07/28 10:01:24;;;;;;;;;;;22.10;88.10;;;;;;5093845;28;19908;-37
2023/07/28 10:03:50;;;;;;;;;;;22.10;88.00;;;;;;5112062;28;20351;-37
2023/07/28 10:06:18;;;;;;;;;;;22.10;88.00;;;;;;5112194;28;19943;-38
2023/07/28 10:08:44;;;;;;;;;;;22.10;87.60;;;;;;5112393;28;19920;-37
2023/07/28 10:11:11;;;;;;;;;;;22.10;87.60;;;;;;5112190;28;20050;-40
2023/07/28 10:13:44;;;;;;;;;;;22.20;87.50;;;;;;5114590;28;19912;-40
2023/07/28 10:16:10;;;;;;;;;;;22.30;87.50;;;;;;5116153;28;20236;-37
2023/07/28 10:18:36;;;;;;;;;;;22.20;87.20;;;;;;5097525;28;19914;-39
2023/07/28 10:21:05;;;;;;;;;;;22.30;87.20;;;;;;5115702;28;19908;-37
2023/07/28 10:23:33;;;;;;;;;;;22.30;87.30;;;;;;5116099;28;20212;-37
2023/07/28 10:26:07;;;;;;;;;;;22.20;87.00;;;;;;5115691;28;19907;-40
2023/07/28 10:28:41;;;;;;;;;;;22.20;86.90;;;;;;5115487;28;19960;-36
2023/07/28 10:31:07;;;;;;;;;;;22.20;86.80;;;;;;5115486;28;19953;-37
2023/07/28 10:33:33;;;;;;;;;;;22.30;86.70;;;;;;5115796;28;19934;-38
2023/07/28 10:35:59;;;;;;;;;;;22.30;86.40;;;;;;5097168;28;20006;-37
2023/07/28 10:38:27;;;;;;;;;;;22.40;86.40;;;;;;5115232;28;19920;-38
2023/07/28 10:41:04;;;;;;;;;;;22.50;86.30;;;;;;5115422;28;19922;-38
2023/07/28 10:43:29;;;;;;;;;;;22.60;85.80;;;;;;5115625;28;19918;-37
2023/07/28 10:45:55;;;;;;;;;;;22.70;85.60;;;;;;5115309;28;19908;-38
2023/07/28 10:48:22;;;;;;;;;;;22.70;85.60;;;;;;5097025;28;19919;-37
2023/07/28 10:50:49;;;;;;;;;;;22.80;85.40;;;;;;5115299;28;19908;-39
2023/07/28 10:53:15;;;;;;;;;;;22.90;84.90;;;;;;5115174;28;19908;-39
2023/07/28 10:55:40;;;;;;;;;;;22.90;84.70;;;;;;5096974;28;20107;-37
2023/07/28 10:58:06;;;;;;;;;;;22.90;84.40;;;;;;5115098;28;19915;-37
2023/07/28 11:00:31;;;;;;;;;;;22.90;84.20;;;;;;5096995;28;20369;-37
2023/07/28 11:02:57;;;;;;;;;;;23.00;83.70;;;;;;5114874;28;19908;-56
2023/07/28 11:05:24;;;;;;;;;;;23.00;83.70;;;;;;5114814;28;19919;-44
2023/07/28 11:07:50;;;;;;;;;;;23.00;82.90;;;;;;5114932;28;19911;-37
2023/07/28 11:10:15;;;;;;;;;;;23.00;82.90;;;;;;5096487;28;19918;-39
2023/07/28 11:12:44;;;;;;;;;;;23.10;82.70;;;;;;5096513;28;20282;-45
2023/07/28 11:15:11;;;;;;;;;;;23.10;82.10;;;;;;5114682;28;20374;-38
2023/07/28 11:17:38;;;;;;;;;;;23.10;82.30;;;;;;5114683;28;19919;-40
2023/07/28 11:20:03;;;;;;;;;;;23.10;82.00;;;;;;5114565;28;19947;-38
2023/07/28 11:22:29;;;;;;;;;;;23.10;81.70;;;;;;5114951;28;20363;-37
2023/07/28 11:24:54;;;;;;;;;;;23.10;81.90;;;;;;5113906;28;19911;-38
2023/07/28 11:27:20;;;;;;;;;;;23.10;81.60;;;;;;5114523;28;20363;-37
2023/07/28 11:29:46;;;;;;;;;;;23.20;81.80;;;;;;5114589;28;19938;-38
2023/07/28 11:32:12;;;;;;;;;;;23.30;81.90;;;;;;5114287;28;19911;-37
2023/07/28 11:34:38;;;;;;;;;;;23.40;81.50;;;;;;5114353;28;19919;-36
2023/07/28 11:37:05;;;;;;;;;;;23.40;81.60;;;;;;5096035;28;19926;-36
2023/07/28 11:39:31;;;;;;;;;;;23.40;80.70;;;;;;5096004;28;19911;-38
2023/07/28 11:41:57;;;;;;;;;;;23.40;80.20;;;;;;5114584;28;19912;-41
2023/07/28 11:44:24;;;;;;;;;;;23.40;80.20;;;;;;5114445;28;20010;-36
2023/07/28 11:46:53;;;;;;;;;;;23.40;80.10;;;;;;5114019;28;19938;-39
2023/07/28 11:49:22;;;;;;;;;;;23.40;79.90;;;;;;5114269;28;19939;-40
2023/07/28 11:51:48;;;;;;;;;;;23.40;79.70;;;;;;5114304;28;20279;-40
2023/07/28 11:54:15;;;;;;;;;;;23.60;79.80;;;;;;5114241;28;20130;-38
2023/07/28 11:56:42;;;;;;;;;;;23.70;79.50;;;;;;5114112;28;19912;-37
2023/07/28 11:59:07;;;;;;;;;;;23.80;78.90;;;;;;5114345;28;19919;-39
2023/07/28 12:01:35;;;;;;;;;;;23.90;78.70;;;;;;5113376;28;20220;-42
2023/07/28 12:04:18;;;;;;;;;;;24.00;78.30;;;;;;5113613;28;20404;-38
2023/07/28 12:07:03;;;;;;;;;;;24.10;78.00;;;;;;5113661;28;19922;-39
2023/07/28 12:09:29;;;;;;;;;;;24.20;77.80;;;;;;5114200;28;20068;-38
2023/07/28 12:11:54;;;;;;;;;;;24.30;77.60;;;;;;5113611;28;19955;-39
2023/07/28 12:14:35;;;;;;;;;;;24.50;77.70;;;;;;5113822;28;19912;-37
2023/07/28 12:17:02;;;;;;;;;;;24.60;77.60;;;;;;5095358;28;19912;-45
2023/07/28 12:19:28;;;;;;;;;;;24.70;77.60;;;;;;5113749;28;19957;-39
2023/07/28 12:21:53;;;;;;;;;;;24.80;77.50;;;;;;5113680;28;19919;-39
2023/07/28 12:24:19;;;;;;;;;;;24.90;77.40;;;;;;5113379;28;19912;-38
2023/07/28 12:26:50;;;;;;;;;;;25.00;76.70;;;;;;5113249;28;19912;-36
2023/07/28 12:29:16;;;;;;;;;;;25.00;76.70;;;;;;5113232;28;19916;-38
2023/07/28 12:31:41;;;;;;;;;;;25.00;76.50;;;;;;5112894;28;19911;-37
2023/07/28 12:34:07;;;;;;;;;;;25.00;76.20;;;;;;5113297;28;20003;-38
2023/07/28 12:36:33;;;;;;;;;;;25.00;75.60;;;;;;5113133;28;19916;-38
2023/07/28 12:38:59;;;;;;;;;;;25.00;76.40;;;;;;5113447;28;19912;-41
2023/07/28 12:41:24;;;;;;;;;;;25.10;76.40;;;;;;5113165;28;20072;-38
2023/07/28 12:43:50;;;;;;;;;;;25.10;76.00;;;;;;5113417;28;19918;-46
2023/07/28 12:46:16;;;;;;;;;;;25.10;76.10;;;;;;5113058;28;19919;-44
2023/07/28 12:48:41;;;;;;;;;;;25.20;76.20;;;;;;5112945;28;19923;-38
2023/07/28 12:51:07;;;;;;;;;;;25.20;75.60;;;;;;5113042;28;19972;-38
2023/07/28 12:53:33;;;;;;;;;;;25.20;75.50;;;;;;5112890;28;19977;-39
2023/07/28 12:55:58;;;;;;;;;;;25.20;75.00;;;;;;5112833;28;19934;-40
2023/07/28 12:58:24;;;;;;;;;;;25.20;74.70;;;;;;5094351;28;19974;-38
2023/07/28 13:00:49;;;;;;;;;;;25.20;74.30;;;;;;5112857;28;19912;-38
2023/07/28 13:03:15;;;;;;;;;;;25.20;74.00;;;;;;5113027;28;19911;-39
2023/07/28 13:05:43;;;;;;;;;;;25.10;74.00;;;;;;5112595;28;19952;-38
2023/07/28 13:08:08;;;;;;;;;;;25.20;73.80;;;;;;5112680;28;19926;-37
2023/07/28 13:10:34;;;;;;;;;;;25.20;74.10;;;;;;5112736;28;19915;-37
2023/07/28 13:12:59;;;;;;;;;;;25.30;73.30;;;;;;5113099;28;19912;-38
2023/07/28 13:15:25;;;;;;;;;;;25.30;73.30;;;;;;5112862;28;19912;-38
2023/07/28 13:17:51;;;;;;;;;;;25.30;73.40;;;;;;5112928;28;19912;-48
2023/07/28 13:20:16;;;;;;;;;;;25.40;73.60;;;;;;5112590;28;19994;-39
2023/07/28 13:22:42;;;;;;;;;;;25.40;73.00;;;;;;5113383;28;19911;-39
2023/07/28 13:25:07;;;;;;;;;;;25.50;72.50;;;;;;5112630;28;20353;-43
2023/07/28 13:27:33;;;;;;;;;;;25.60;71.70;;;;;;5112607;28;20007;-38
2023/07/28 13:29:58;;;;;;;;;;;25.70;71.90;;;;;;5112527;28;19923;-39
2023/07/28 13:32:25;;;;;;;;;;;25.70;71.90;;;;;;5112659;28;20071;-38
2023/07/28 13:34:51;;;;;;;;;;;25.70;72.20;;;;;;5112683;28;19912;-38
2023/07/28 13:37:17;;;;;;;;;;;25.90;72.10;;;;;;5112556;28;19912;-37
2023/07/28 13:39:43;;;;;;;;;;;26.00;71.20;;;;;;5112535;28;20033;-38
2023/07/28 13:42:08;;;;;;;;;;;26.00;71.70;;;;;;5112914;28;19912;-38
2023/07/28 13:44:34;;;;;;;;;;;26.10;70.60;;;;;;5112334;28;20005;-37
2023/07/28 13:47:00;;;;;;;;;;;26.10;70.70;;;;;;5112567;28;19965;-39
2023/07/28 13:49:25;;;;;;;;;;;26.00;70.90;;;;;;5115845;28;19916;-36
2023/07/28 13:51:51;;;;;;;;;;;26.10;71.10;;;;;;5116367;28;20479;-38
2023/07/28 13:54:17;;;;;;;;;;;26.10;71.40;;;;;;5116260;28;19919;-39
2023/07/28 13:56:42;;;;;;;;;;;26.20;71.30;;;;;;5116399;28;20389;-40
2023/07/28 13:59:08;;;;;;;;;;;26.20;70.40;;;;;;5116213;28;19912;-39
2023/07/28 14:01:33;;;;;;;;;;;26.20;69.70;;;;;;5116196;28;20010;-41
2023/07/28 14:03:59;;;;;;;;;;;26.30;69.20;;;;;;5115847;28;19916;-40
2023/07/28 14:06:24;;;;;;;;;;;26.50;68.80;;;;;;5116409;28;19912;-40
2023/07/28 14:08:50;;;;;;;;;;;26.50;68.00;;;;;;5116088;28;20014;-39
2023/07/28 14:11:15;;;;;;;;;;;26.50;67.10;;;;;;5115963;28;19911;-37